createdAt,value
2019-01-20T00:03:27.519Z,0.40
2019-01-20T00:08:37.188Z,0.38
2019-01-20T00:13:46.802Z,0.49
2019-01-20T00:18:56.375Z,0.41
2019-01-20T00:24:06.124Z,0.53
2019-01-20T00:29:15.685Z,0.58
2019-01-20T00:34:25.355Z,0.33
2019-01-20T00:39:34.943Z,0.79
2019-01-20T00:44:44.562Z,0.42
2019-01-20T00:49:54.117Z,0.63
2019-01-20T00:55:03.820Z,0.59
2019-01-20T01:00:13.440Z,0.59
2019-01-20T01:05:23.144Z,0.96
2019-01-20T01:10:32.798Z,0.53
2019-01-20T01:15:42.576Z,0.46
2019-01-20T01:20:52.178Z,0.52
2019-01-20T01:26:01.887Z,0.63
2019-01-20T01:31:11.465Z,0.52
2019-01-20T01:36:21.074Z,0.64
2019-01-20T01:41:30.826Z,0.45
2019-01-20T01:46:40.379Z,0.79
2019-01-20T01:51:49.990Z,0.61
2019-01-20T01:56:59.764Z,0.87
2019-01-20T02:02:09.407Z,0.82
2019-01-20T02:07:19.186Z,0.70
2019-01-20T02:12:28.735Z,0.44
2019-01-20T02:17:38.287Z,0.57
2019-01-20T02:22:47.946Z,0.56
2019-01-20T02:27:58.779Z,0.48
2019-01-20T02:32:58.054Z,0.65
2019-01-20T02:38:07.720Z,0.46
2019-01-20T02:43:17.279Z,0.43
2019-01-20T02:48:26.917Z,0.65
2019-01-20T02:53:36.496Z,0.40
2019-01-20T02:58:46.239Z,0.50
2019-01-20T03:03:55.786Z,0.40
2019-01-20T03:09:05.553Z,0.49
2019-01-20T03:14:15.140Z,0.46
2019-01-20T03:19:24.761Z,0.37
2019-01-20T03:24:34.310Z,0.42
2019-01-20T03:29:43.978Z,0.51
2019-01-20T03:34:53.577Z,0.48
2019-01-20T03:40:03.138Z,0.56
2019-01-20T03:45:12.796Z,0.49
2019-01-20T03:50:22.786Z,0.54
2019-01-20T03:55:32.301Z,0.66
2019-01-20T04:00:42.004Z,0.55
2019-01-20T04:05:51.539Z,0.58
2019-01-20T04:11:01.160Z,0.78
2019-01-20T04:16:10.719Z,0.66
2019-01-20T04:21:20.423Z,0.40
2019-01-20T04:26:30.079Z,0.52
2019-01-20T04:31:39.802Z,0.79
2019-01-20T04:36:49.408Z,0.61
2019-01-20T04:41:59.027Z,0.78
2019-01-20T04:47:08.519Z,0.73
2019-01-20T04:52:18.179Z,0.58
2019-01-20T04:57:27.838Z,0.59
2019-01-20T05:02:37.412Z,0.39
2019-01-20T05:07:46.972Z,0.59
2019-01-20T05:12:56.623Z,0.39
2019-01-20T05:18:06.239Z,0.74
2019-01-20T05:23:15.747Z,0.78
2019-01-20T05:28:25.398Z,0.91
2019-01-20T05:33:34.955Z,0.78
2019-01-20T05:38:44.622Z,0.50
2019-01-20T05:43:54.379Z,0.44
2019-01-20T05:49:04.009Z,0.66
2019-01-20T05:54:13.599Z,0.36
2019-01-20T05:59:23.268Z,0.63
2019-01-20T06:04:32.813Z,0.51
2019-01-20T06:09:42.475Z,0.63
2019-01-20T06:14:52.146Z,0.59
2019-01-20T06:20:01.706Z,0.68
2019-01-20T06:25:11.268Z,0.63
2019-01-20T06:30:20.906Z,0.75
2019-01-20T06:35:30.470Z,0.46
2019-01-20T06:40:40.144Z,0.45
2019-01-20T06:45:50.413Z,0.65
2019-01-20T06:50:50.169Z,0.59
2019-01-20T06:55:59.779Z,0.59
2019-01-20T07:01:09.463Z,0.74
2019-01-20T07:06:19.127Z,0.45
2019-01-20T07:11:28.867Z,0.54
2019-01-20T07:16:38.462Z,0.45
2019-01-20T07:21:48.105Z,0.63
2019-01-20T07:26:57.794Z,0.56
2019-01-20T07:32:07.573Z,0.42
2019-01-20T07:37:17.198Z,0.59
2019-01-20T07:42:26.759Z,0.66
2019-01-20T07:47:36.423Z,0.34
2019-01-20T07:52:46.180Z,0.71
2019-01-20T07:57:55.779Z,0.59
2019-01-20T08:03:06.087Z,0.62
2019-01-20T08:08:05.847Z,1.03
2019-01-20T08:13:14.763Z,0.54
2019-01-20T08:18:22.844Z,0.91
2019-01-20T08:23:32.491Z,0.71
2019-01-20T08:28:42.032Z,0.67
2019-01-20T08:33:51.786Z,0.89
2019-01-20T08:39:01.380Z,1.08
2019-01-20T08:44:11.071Z,1.51
2019-01-20T08:49:20.796Z,1.16
2019-01-20T08:54:30.810Z,0.86
2019-01-20T08:59:30.566Z,0.78
2019-01-20T09:04:40.338Z,1.40
2019-01-20T09:09:50.103Z,0.85
2019-01-20T09:14:59.868Z,1.12
2019-01-20T09:20:09.637Z,0.82
2019-01-20T09:25:19.595Z,0.91
2019-01-20T09:30:29.178Z,0.68
2019-01-20T09:35:38.923Z,1.02
2019-01-20T09:40:48.691Z,1.09
2019-01-20T09:45:58.525Z,0.79
2019-01-20T09:51:08.110Z,0.78
2019-01-20T09:56:17.946Z,0.69
2019-01-20T10:01:27.464Z,0.61
2019-01-20T10:06:37.301Z,0.55
2019-01-20T10:11:46.974Z,0.46
2019-01-20T10:16:56.864Z,0.40
2019-01-20T10:22:06.448Z,0.50
2019-01-20T10:27:15.832Z,0.41
2019-01-20T10:32:25.234Z,0.74
2019-01-20T10:37:34.584Z,0.39
2019-01-20T10:42:44.019Z,0.48
2019-01-20T10:47:53.527Z,0.57
2019-01-20T10:53:02.849Z,0.68
2019-01-20T10:58:12.190Z,0.57
2019-01-20T11:03:22.046Z,0.29
2019-01-20T11:08:31.255Z,0.48
2019-01-20T11:13:40.487Z,0.57
2019-01-20T11:18:49.735Z,0.48
2019-01-20T11:23:59.060Z,0.75
2019-01-20T11:29:08.255Z,0.32
2019-01-20T11:34:17.470Z,0.28
2019-01-20T11:39:26.738Z,0.34
2019-01-20T11:44:36.228Z,0.56
2019-01-20T11:49:45.643Z,0.46
2019-01-20T11:54:55.097Z,0.32
2019-01-20T12:00:04.406Z,0.37
2019-01-20T12:05:13.799Z,0.43
2019-01-20T12:10:23.072Z,0.44
2019-01-20T12:15:34.598Z,0.40
2019-01-20T12:20:33.768Z,0.66
2019-01-20T12:25:43.375Z,0.50
2019-01-20T12:30:52.811Z,0.42
2019-01-20T12:36:02.400Z,0.42
2019-01-20T12:41:11.727Z,0.44
2019-01-20T12:46:21.087Z,0.31
2019-01-20T12:51:30.384Z,0.55
2019-01-20T12:56:39.775Z,0.25
2019-01-20T13:01:49.118Z,0.35
2019-01-20T13:06:58.403Z,0.26
2019-01-20T13:12:07.741Z,0.30
2019-01-20T13:17:17.099Z,0.35
2019-01-20T13:22:26.539Z,0.41
2019-01-20T13:27:35.876Z,0.35
2019-01-20T13:32:45.141Z,0.30
2019-01-20T13:37:54.634Z,0.24
2019-01-20T13:43:04.051Z,0.45
2019-01-20T13:48:13.421Z,0.27
2019-01-20T13:53:22.627Z,0.43
2019-01-20T13:58:31.844Z,0.34
2019-01-20T14:03:41.155Z,0.21
2019-01-20T14:08:50.421Z,0.29
2019-01-20T14:13:59.764Z,0.32
2019-01-20T14:19:09.027Z,0.49
2019-01-20T14:24:18.496Z,0.27
2019-01-20T14:29:27.829Z,0.27
2019-01-20T14:34:37.287Z,0.25
2019-01-20T14:39:46.596Z,0.35
2019-01-20T14:45:01.018Z,0.44
2019-01-20T14:50:05.236Z,0.34
2019-01-20T14:55:14.582Z,0.46
2019-01-20T15:00:23.958Z,0.39
2019-01-20T15:05:33.492Z,0.46
2019-01-20T15:10:42.799Z,0.34
2019-01-20T15:15:52.636Z,0.25
2019-01-20T15:21:01.907Z,0.32
2019-01-20T15:26:11.239Z,0.53
2019-01-20T15:31:20.499Z,0.54
2019-01-20T15:36:29.975Z,0.27
2019-01-20T15:41:39.237Z,0.43
2019-01-20T15:46:48.711Z,0.25
2019-01-20T15:51:58.374Z,0.37
2019-01-20T15:57:07.716Z,0.25
2019-01-20T16:02:16.985Z,0.51
2019-01-20T16:07:26.351Z,0.34
2019-01-20T16:12:36.057Z,0.49
2019-01-20T16:17:45.395Z,0.34
2019-01-20T16:22:54.844Z,0.24
2019-01-20T16:28:04.236Z,0.38
2019-01-20T16:33:13.577Z,0.46
2019-01-20T16:38:22.991Z,0.39
2019-01-20T16:43:32.291Z,0.37
2019-01-20T16:48:41.665Z,0.52
2019-01-20T16:53:50.873Z,0.30
2019-01-20T16:59:00.248Z,0.25
2019-01-20T17:04:09.966Z,0.27
2019-01-20T17:09:19.357Z,0.40
2019-01-20T17:14:28.690Z,0.45
2019-01-20T17:19:38.125Z,0.31
2019-01-20T17:24:47.600Z,0.33
2019-01-20T17:29:56.971Z,0.37
2019-01-20T17:35:08.018Z,0.24
2019-01-20T17:40:07.378Z,0.30
2019-01-20T17:45:16.598Z,0.28
2019-01-20T17:50:26.515Z,0.37
2019-01-20T17:55:41.395Z,0.22
2019-01-20T18:00:40.950Z,0.24
2019-01-20T18:05:50.123Z,0.34
2019-01-20T18:10:59.694Z,0.38
2019-01-20T18:16:08.946Z,0.30
2019-01-20T18:21:18.230Z,0.26
2019-01-20T18:26:27.559Z,0.51
2019-01-20T18:31:36.898Z,0.41
2019-01-20T18:36:48.261Z,0.33
2019-01-20T18:41:47.330Z,0.24
2019-01-20T18:46:56.626Z,0.22
2019-01-20T18:52:05.838Z,0.37
2019-01-20T18:57:15.183Z,0.21
2019-01-20T19:02:24.538Z,0.34
2019-01-20T19:07:33.766Z,0.27
2019-01-20T19:12:43.151Z,0.40
2019-01-20T19:17:52.622Z,0.59
2019-01-20T19:23:01.850Z,0.44
2019-01-20T19:28:11.137Z,0.40
2019-01-20T19:33:20.462Z,0.36
2019-01-20T19:38:29.841Z,0.35
2019-01-20T19:43:39.239Z,0.31
2019-01-20T19:48:48.533Z,0.23
2019-01-20T19:53:58.171Z,0.43
2019-01-20T19:59:07.655Z,0.37
2019-01-20T20:04:16.870Z,0.28
2019-01-20T20:09:26.251Z,0.43
2019-01-20T20:14:35.690Z,0.43
2019-01-20T20:19:45.260Z,0.90
2019-01-20T20:24:54.503Z,0.38
2019-01-20T20:30:03.884Z,0.27
2019-01-20T20:35:14.075Z,0.39
2019-01-20T20:40:13.559Z,0.48
2019-01-20T20:45:22.743Z,0.36
2019-01-20T20:50:32.076Z,0.35
2019-01-20T20:56:56.466Z,0.53
2019-01-20T21:02:05.672Z,0.36
2019-01-20T21:07:15.039Z,0.26
2019-01-20T21:12:24.285Z,0.34
2019-01-20T21:17:33.609Z,0.34
2019-01-20T21:22:42.887Z,0.48
2019-01-20T21:27:52.163Z,0.28
2019-01-20T21:33:01.374Z,0.47
2019-01-20T21:38:10.733Z,0.50
2019-01-20T21:43:20.001Z,0.33
2019-01-20T21:48:29.362Z,0.47
2019-01-20T21:53:38.609Z,0.36
2019-01-20T21:58:47.846Z,0.29
2019-01-20T22:03:57.087Z,0.29
2019-01-20T22:09:06.403Z,0.55
2019-01-20T22:14:15.741Z,0.61
2019-01-20T22:19:24.924Z,0.46
2019-01-20T22:24:34.191Z,0.69
2019-01-20T22:29:43.474Z,0.57
2019-01-20T22:34:52.715Z,0.82
2019-01-20T22:40:02.051Z,0.46
2019-01-20T22:45:11.266Z,0.98
2019-01-20T22:50:20.749Z,0.54
2019-01-20T22:55:29.991Z,0.70
2019-01-20T23:00:39.260Z,0.37
2019-01-20T23:05:48.533Z,0.49
2019-01-20T23:10:57.729Z,0.47
2019-01-20T23:16:07.248Z,0.29
2019-01-20T23:21:16.493Z,0.56
2019-01-20T23:26:25.770Z,0.39
2019-01-20T23:31:34.950Z,0.51
2019-01-20T23:36:44.254Z,0.28
2019-01-20T23:41:53.440Z,0.31
2019-01-20T23:47:02.952Z,0.26
2019-01-20T23:52:12.174Z,0.27
2019-01-20T23:57:21.398Z,0.29
